Time;durP1;ratioP1;P1;durP2;ratioP2;P2;SDS_P1;SDS_P2;PMS_P1;PMS_P2;Temp;Humidity;BMP_temperature;BMP_pressure;BME280_temperature;BME280_humidity;BME280_pressure;Samples;Min_cycle;Max_cycle;Signal;HPM_P1;HPM_P2
2021/12/18 03:48:49;;;;;;;12.15;6.45;;;9.70;99.90;;;;;;5110520;27;20089;-84
2021/12/18 03:51:15;;;;;;;12.48;6.43;;;9.70;99.90;;;;;;5077402;28;20036;-83
2021/12/18 03:53:41;;;;;;;13.20;6.72;;;9.70;99.90;;;;;;5078026;28;20110;-83
2021/12/18 03:56:20;;;;;;;15.02;7.20;;;9.70;99.90;;;;;;5077132;28;20067;-83
2021/12/18 04:34:00;;;;;;;12.88;5.90;;;9.60;99.90;;;;;;5115975;28;20016;-84
2021/12/18 08:50:45;;;;;;;4.63;1.73;;;8.90;99.90;;;;;;5093544;28;20043;-83
2021/12/18 08:56:36;;;;;;;2.92;1.17;;;8.80;99.90;;;;;;5094080;28;20139;-84
2021/12/18 09:02:45;;;;;;;1.83;1.15;;;8.90;99.90;;;;;;5094850;28;20031;-84
2021/12/18 09:09:25;;;;;;;3.33;1.27;;;8.90;99.90;;;;;;5093886;28;20450;-84
2021/12/18 09:16:06;;;;;;;1.77;1.00;;;8.90;99.90;;;;;;5094097;28;20039;-84
2021/12/18 09:18:32;;;;;;;2.25;1.08;;;8.90;99.90;;;;;;5075886;28;20024;-84
2021/12/18 09:21:35;;;;;;;2.35;1.00;;;8.90;99.90;;;;;;5075957;28;20386;-84
2021/12/18 09:24:02;;;;;;;2.03;1.08;;;8.90;99.90;;;;;;5077401;28;20098;-84
2021/12/18 09:26:28;;;;;;;2.30;1.27;;;8.90;99.90;;;;;;5072049;28;20028;-85
2021/12/18 09:28:53;;;;;;;2.55;1.30;;;8.90;99.90;;;;;;5071919;28;20024;-85
2021/12/18 09:31:19;;;;;;;3.83;1.60;;;9.00;99.90;;;;;;5056664;28;20027;-85
2021/12/18 09:33:44;;;;;;;2.28;1.30;;;8.80;99.90;;;;;;5089843;28;20472;-84
2021/12/18 09:36:10;;;;;;;2.30;1.40;;;8.90;99.90;;;;;;5092997;28;20047;-84
2021/12/18 09:38:36;;;;;;;3.33;1.70;;;8.90;99.90;;;;;;5059164;28;20028;-84
2021/12/18 09:41:06;;;;;;;3.97;1.75;;;8.90;99.90;;;;;;5059039;28;20039;-84
2021/12/18 09:46:54;;;;;;;3.35;1.48;;;8.90;99.90;;;;;;5093297;28;20403;-88
2021/12/18 09:49:20;;;;;;;5.82;1.75;;;9.00;99.90;;;;;;5075386;28;20432;-84
2021/12/18 09:51:47;;;;;;;3.65;1.40;;;8.90;99.90;;;;;;5075336;28;20074;-84
2021/12/18 10:05:44;;;;;;;1.55;1.10;;;9.00;99.90;;;;;;5116018;27;20133;-85
2021/12/18 10:08:28;;;;;;;1.77;1.20;;;9.00;99.90;;;;;;5099679;28;20042;-85
2021/12/18 10:25:10;;;;;;;2.72;1.38;;;8.90;99.90;;;;;;5116319;28;20028;-86
2021/12/18 10:31:41;;;;;;;1.63;1.20;;;9.00;99.90;;;;;;5117558;28;20034;-86
2021/12/18 10:34:27;;;;;;;2.17;1.40;;;8.90;99.90;;;;;;5099008;28;20016;-86
2021/12/18 10:37:09;;;;;;;3.13;1.65;;;9.00;99.90;;;;;;5099640;28;20024;-87
2021/12/18 10:39:37;;;;;;;3.72;1.65;;;9.00;99.90;;;;;;5098971;28;20055;-87
2021/12/18 10:42:16;;;;;;;3.10;1.65;;;9.00;99.90;;;;;;5117515;28;20095;-87
2021/12/18 10:45:00;;;;;;;3.05;1.75;;;9.00;99.90;;;;;;5099204;28;20022;-88
2021/12/18 10:47:41;;;;;;;2.72;1.73;;;9.00;99.90;;;;;;5087398;28;20028;-89
2021/12/18 10:50:19;;;;;;;4.75;1.98;;;8.90;99.90;;;;;;5104662;28;20020;-88
2021/12/18 10:52:51;;;;;;;4.45;2.00;;;9.00;99.90;;;;;;5121800;28;20027;-90
2021/12/18 10:55:16;;;;;;;2.83;1.67;;;8.90;99.90;;;;;;5138864;28;20038;-93
2021/12/18 10:57:53;;;;;;;4.50;2.20;;;9.00;99.90;;;;;;5087217;28;20035;-90
2021/12/18 11:00:49;;;;;;;4.22;2.38;;;9.00;99.90;;;;;;5084491;28;20020;-93
2021/12/18 11:03:26;;;;;;;3.40;1.92;;;9.00;99.90;;;;;;5096672;28;20115;-95
2021/12/18 11:06:14;;;;;;;2.33;1.42;;;9.00;99.90;;;;;;5095260;28;20047;-89
2021/12/18 11:09:06;;;;;;;2.50;1.45;;;9.00;99.90;;;;;;5097027;28;20110;-92
2021/12/18 11:14:32;;;;;;;2.85;1.80;;;9.00;99.90;;;;;;5114916;28;20428;-92
2021/12/18 11:17:00;;;;;;;5.88;3.35;;;9.00;99.90;;;;;;5096107;28;20027;-90
2021/12/18 11:19:29;;;;;;;3.70;2.38;;;9.00;99.90;;;;;;5095645;28;20391;-89
2021/12/18 11:22:01;;;;;;;5.65;2.80;;;9.00;99.90;;;;;;5081761;28;20020;-89
2021/12/18 11:24:57;;;;;;;4.70;2.78;;;9.00;99.90;;;;;;5098502;28;20089;-88
2021/12/18 11:27:24;;;;;;;4.25;2.30;;;9.00;99.90;;;;;;5094601;28;20046;-92
2021/12/18 11:30:00;;;;;;;3.50;2.30;;;9.00;99.90;;;;;;5116795;28;20478;-90
2021/12/18 11:32:31;;;;;;;2.05;1.35;;;9.00;99.90;;;;;;5116788;28;20058;-91
2021/12/18 11:35:03;;;;;;;2.25;1.50;;;9.00;99.90;;;;;;5098920;28;20349;-90
2021/12/18 11:37:43;;;;;;;3.70;1.70;;;8.90;99.90;;;;;;5082759;28;20050;-96
2021/12/18 11:40:17;;;;;;;2.28;1.40;;;9.00;99.90;;;;;;5097182;28;20012;-90
2021/12/18 11:42:43;;;;;;;1.67;1.20;;;9.00;99.90;;;;;;5100412;28;20083;-89
2021/12/18 11:45:10;;;;;;;1.88;1.20;;;9.00;99.90;;;;;;5099469;28;20085;-91
2021/12/18 11:47:44;;;;;;;2.30;1.27;;;9.00;99.90;;;;;;5127237;28;20028;-91
2021/12/18 11:50:25;;;;;;;14.13;2.85;;;9.00;99.90;;;;;;5114124;28;20024;-90
2021/12/18 11:53:07;;;;;;;7.22;2.28;;;9.10;99.90;;;;;;5108395;28;20110;-92
2021/12/18 11:55:34;;;;;;;18.92;3.45;;;9.00;99.90;;;;;;5128508;28;20028;-87
2021/12/18 11:58:11;;;;;;;4.78;2.53;;;9.10;99.90;;;;;;5119785;28;20035;-89
2021/12/18 12:00:39;;;;;;;3.97;2.30;;;9.00;99.90;;;;;;5107818;28;20031;-90
2021/12/18 12:03:07;;;;;;;3.80;2.40;;;9.10;99.90;;;;;;5110350;28;20013;-88
2021/12/18 12:08:42;;;;;;;4.20;2.38;;;9.10;99.90;;;;;;5096645;28;20111;-89
2021/12/18 12:11:21;;;;;;;3.85;2.28;;;9.10;99.90;;;;;;5078647;28;20020;-91
2021/12/18 12:13:55;;;;;;;4.80;2.38;;;9.10;99.90;;;;;;5077866;28;20024;-88
2021/12/18 12:16:43;;;;;;;3.40;2.10;;;9.10;99.90;;;;;;5077327;28;20035;-89
2021/12/18 12:19:10;;;;;;;4.28;2.40;;;9.10;99.90;;;;;;5111430;28;20020;-90
2021/12/18 12:21:51;;;;;;;2.97;1.92;;;9.10;99.90;;;;;;5077691;28;20024;-89
2021/12/18 12:24:25;;;;;;;3.10;1.98;;;9.10;99.90;;;;;;5076840;28;20055;-89
2021/12/18 12:26:53;;;;;;;3.80;2.08;;;9.20;99.90;;;;;;5076768;28;20032;-88
2021/12/18 12:29:19;;;;;;;4.07;2.20;;;9.10;99.90;;;;;;5076531;28;20044;-86
2021/12/18 12:32:00;;;;;;;3.92;1.95;;;9.10;99.90;;;;;;5076390;28;20027;-89
2021/12/18 12:34:32;;;;;;;;;;;9.20;99.90;;;;;;5077096;28;20066;-88
2021/12/18 12:37:27;;;;;;;3.47;1.92;;;9.10;99.90;;;;;;5077093;28;19928;-92
2021/12/18 12:40:02;;;;;;;3.38;1.88;;;9.20;99.90;;;;;;5076728;28;20024;-88
2021/12/18 12:42:29;;;;;;;3.95;2.13;;;9.10;99.90;;;;;;5110410;28;20055;-88
2021/12/18 12:45:09;;;;;;;3.45;1.92;;;9.20;99.90;;;;;;5094090;28;20016;-90
2021/12/18 12:47:37;;;;;;;2.58;1.70;;;9.20;99.90;;;;;;5062092;28;20054;-90
2021/12/18 12:50:11;;;;;;;2.75;1.58;;;9.20;99.90;;;;;;5059964;28;20027;-90
2021/12/18 12:52:51;;;;;;;3.03;1.70;;;9.20;99.90;;;;;;5110787;28;20077;-89
2021/12/18 12:55:19;;;;;;;2.63;1.50;;;9.20;99.90;;;;;;5093572;28;20036;-88
2021/12/18 12:57:47;;;;;;;1.77;1.30;;;9.20;99.90;;;;;;5093433;28;20046;-89
2021/12/18 13:00:15;;;;;;;2.58;1.50;;;9.30;99.90;;;;;;5076157;28;20433;-88
2021/12/18 13:02:55;;;;;;;2.30;1.65;;;9.30;99.90;;;;;;5109834;28;20111;-88
2021/12/18 13:05:23;;;;;;;2.50;1.60;;;9.30;99.90;;;;;;5110293;28;20067;-88
2021/12/18 13:07:51;;;;;;;2.25;1.27;;;9.40;99.90;;;;;;5078462;28;20062;-86
2021/12/18 13:10:25;;;;;;;9.85;1.00;;;9.20;99.90;;;;;;5107517;28;20047;-87
2021/12/18 13:13:02;;;;;;;2.10;1.00;;;9.40;99.90;;;;;;5094910;28;20103;-86
2021/12/18 13:15:45;;;;;;;1.80;1.15;;;9.40;99.90;;;;;;5112142;28;20111;-80
2021/12/18 13:18:11;;;;;;;4.07;0.95;;;9.40;99.90;;;;;;5095891;28;20023;-88
2021/12/18 13:20:48;;;;;;;1.77;1.13;;;9.40;99.90;;;;;;5079040;28;20120;-90
2021/12/18 13:23:18;;;;;;;1.88;1.00;;;9.40;99.90;;;;;;5114993;28;20042;-89
2021/12/18 13:25:49;;;;;;;1.42;1.05;;;9.40;99.90;;;;;;5096209;28;20031;-88
2021/12/18 13:28:14;;;;;;;;;;;9.40;99.90;;;;;;5096029;28;20371;-89
2021/12/18 13:30:41;;;;;;;3.63;1.42;;;9.40;99.90;;;;;;5130255;28;19962;-89
2021/12/18 13:33:07;;;;;;;2.30;1.40;;;9.40;99.90;;;;;;5096963;28;20031;-90
2021/12/18 13:35:36;;;;;;;3.17;1.80;;;9.50;99.90;;;;;;5096472;28;20063;-91
2021/12/18 13:38:07;;;;;;;4.10;1.83;;;9.50;99.90;;;;;;5117965;28;20024;-88
2021/12/18 13:40:37;;;;;;;2.40;1.48;;;9.50;99.90;;;;;;5100429;28;20020;-89
2021/12/18 13:43:21;;;;;;;4.18;1.80;;;9.50;99.90;;;;;;5100471;28;20024;-90
2021/12/18 13:46:02;;;;;;;3.15;1.60;;;9.50;99.90;;;;;;5100524;28;20032;-88
2021/12/18 13:48:32;;;;;;;2.33;1.80;;;9.50;99.90;;;;;;5100342;28;20460;-88
2021/12/18 13:51:08;;;;;;;2.38;1.63;;;9.50;99.90;;;;;;5100607;28;20471;-88
2021/12/18 13:53:35;;;;;;;2.78;1.58;;;9.50;99.90;;;;;;5101171;28;20043;-89
2021/12/18 13:56:05;;;;;;;2.20;1.50;;;9.50;99.90;;;;;;5119452;28;20055;-89
2021/12/18 13:58:33;;;;;;;2.30;1.67;;;9.50;99.90;;;;;;5083870;28;20032;-89
2021/12/18 14:01:05;;;;;;;1.88;1.33;;;9.50;99.90;;;;;;5118999;28;20491;-89
2021/12/18 14:03:35;;;;;;;2.15;1.35;;;9.50;99.90;;;;;;5100895;28;20024;-89
2021/12/18 14:06:05;;;;;;;3.25;1.80;;;9.50;99.90;;;;;;5100053;28;20138;-89
2021/12/18 14:08:33;;;;;;;3.35;1.80;;;9.50;99.90;;;;;;5118747;28;20034;-90
2021/12/18 14:11:05;;;;;;;5.35;1.70;;;9.50;99.90;;;;;;5100521;28;20375;-90
2021/12/18 14:13:49;;;;;;;3.03;1.67;;;9.50;99.90;;;;;;5100797;28;20019;-89
2021/12/18 14:16:16;;;;;;;2.95;1.83;;;9.50;99.90;;;;;;5100655;28;20020;-89
2021/12/18 14:21:57;;;;;;;3.58;2.22;;;9.50;99.90;;;;;;5076213;28;20074;-91
2021/12/18 14:24:23;;;;;;;4.45;3.03;;;9.50;99.90;;;;;;5059599;28;20028;-91
2021/12/18 14:27:05;;;;;;;4.82;3.70;;;9.50;99.90;;;;;;5058996;28;20044;-91
2021/12/18 14:29:34;;;;;;;5.05;3.33;;;9.50;99.90;;;;;;5076652;28;20036;-90
2021/12/18 14:32:04;;;;;;;4.20;3.03;;;9.50;99.90;;;;;;5064849;28;20032;-90
2021/12/18 14:34:32;;;;;;;4.10;3.05;;;9.50;99.90;;;;;;5075674;28;20113;-90
2021/12/18 14:40:23;;;;;;;5.05;2.60;;;9.50;99.90;;;;;;5076244;28;20066;-90
2021/12/18 14:46:50;;;;;;;5.28;3.22;;;9.50;99.90;;;;;;5076048;28;20040;-90
2021/12/18 14:49:18;;;;;;;5.03;3.10;;;9.50;99.90;;;;;;5059216;28;20021;-92
2021/12/18 14:51:58;;;;;;;5.88;3.03;;;9.50;99.90;;;;;;5082245;28;20074;-89
2021/12/18 14:54:23;;;;;;;4.75;3.20;;;9.50;99.90;;;;;;5085071;28;20059;-89
2021/12/18 14:56:49;;;;;;;6.20;3.05;;;9.50;99.90;;;;;;5099986;28;20069;-87
2021/12/18 14:59:16;;;;;;;5.47;3.72;;;9.50;99.90;;;;;;5082953;28;20028;-88
2021/12/18 15:01:42;;;;;;;4.88;3.38;;;9.50;99.90;;;;;;5112879;28;20043;-88
2021/12/18 15:07:31;;;;;;;6.38;4.05;;;9.50;99.90;;;;;;5134044;28;20082;-89
2021/12/18 15:09:57;;;;;;;6.25;4.20;;;9.50;99.90;;;;;;5083872;28;20027;-94
2021/12/18 15:12:26;;;;;;;5.55;4.05;;;9.50;99.90;;;;;;5099660;28;20024;-86
2021/12/18 15:14:52;;;;;;;6.93;3.85;;;9.50;99.90;;;;;;5099469;28;20027;-85
2021/12/18 15:17:17;;;;;;;7.10;5.20;;;9.50;99.90;;;;;;5099133;28;20031;-86
2021/12/18 15:23:39;;;;;;;5.70;3.88;;;9.50;99.90;;;;;;5115776;28;20030;-87
2021/12/18 15:26:05;;;;;;;7.70;3.50;;;9.50;99.90;;;;;;5099967;28;20044;-86
2021/12/18 15:28:31;;;;;;;8.93;6.32;;;9.50;99.90;;;;;;5089576;28;20042;-87
2021/12/18 15:30:59;;;;;;;12.20;8.35;;;9.50;99.90;;;;;;5117257;28;20012;-86
2021/12/18 15:33:25;;;;;;;8.27;6.57;;;9.50;99.90;;;;;;5122381;28;20016;-85
2021/12/18 15:35:51;;;;;;;8.75;6.60;;;9.50;99.90;;;;;;5097481;28;20029;-86
2021/12/18 15:38:17;;;;;;;6.60;4.50;;;9.50;99.90;;;;;;5140431;28;20028;-90
2021/12/18 15:40:42;;;;;;;6.88;5.22;;;9.50;99.90;;;;;;5140498;28;20027;-84
2021/12/18 15:43:10;;;;;;;7.38;5.63;;;9.50;99.90;;;;;;5121404;28;20016;-87
2021/12/18 15:45:36;;;;;;;6.88;5.07;;;9.50;99.90;;;;;;5105605;28;20074;-87
2021/12/18 15:48:02;;;;;;;5.97;3.70;;;9.50;99.90;;;;;;5085229;28;20418;-85
2021/12/18 15:50:28;;;;;;;5.65;4.20;;;9.50;99.90;;;;;;5100925;28;20020;-87
2021/12/18 15:52:54;;;;;;;5.88;3.78;;;9.50;99.90;;;;;;5097420;28;20380;-87
2021/12/18 15:55:21;;;;;;;5.80;3.30;;;9.50;99.90;;;;;;5079039;28;20032;-88
2021/12/18 15:57:47;;;;;;;7.30;3.60;;;9.50;99.90;;;;;;5080985;28;20024;-92
2021/12/18 16:00:15;;;;;;;6.07;3.70;;;9.60;99.90;;;;;;5097095;28;20486;-85
2021/12/18 16:02:46;;;;;;;6.30;3.45;;;9.50;99.90;;;;;;5115234;28;20036;-87
2021/12/18 16:05:12;;;;;;;5.90;3.70;;;9.50;99.90;;;;;;5096642;28;20048;-88
2021/12/18 16:07:39;;;;;;;5.60;3.50;;;9.50;99.90;;;;;;5081059;28;20027;-87
2021/12/18 16:10:05;;;;;;;7.32;4.15;;;9.60;99.90;;;;;;5094857;28;20040;-87
2021/12/18 16:12:31;;;;;;;5.18;3.83;;;9.50;99.90;;;;;;5095413;28;20015;-85
2021/12/18 16:14:56;;;;;;;6.88;4.63;;;9.50;99.90;;;;;;5115184;28;20076;-85
2021/12/18 16:17:23;;;;;;;9.70;4.45;;;9.50;99.90;;;;;;5098044;28;20070;-86
2021/12/18 16:19:48;;;;;;;5.85;3.70;;;9.60;99.90;;;;;;5078692;28;20032;-86
2021/12/18 16:22:14;;;;;;;7.20;4.75;;;9.60;99.90;;;;;;5076910;28;20426;-86
2021/12/18 16:25:16;;;;;;;7.32;3.53;;;9.60;99.90;;;;;;5077161;28;20028;-86
2021/12/18 16:31:04;;;;;;;5.15;3.45;;;9.50;99.90;;;;;;5098756;28;20027;-88
2021/12/18 16:33:32;;;;;;;5.22;3.53;;;9.50;99.90;;;;;;5088414;28;20032;-89
2021/12/18 16:35:59;;;;;;;5.25;3.22;;;9.50;99.90;;;;;;5090937;28;20039;-91
2021/12/18 16:38:32;;;;;;;5.30;3.42;;;9.60;99.90;;;;;;5095829;28;20020;-87
2021/12/18 16:41:13;;;;;;;6.20;3.28;;;9.60;99.90;;;;;;5076683;28;20048;-88
2021/12/18 16:43:39;;;;;;;6.45;4.57;;;9.50;99.90;;;;;;5089263;28;20080;-88
2021/12/18 16:46:07;;;;;;;7.80;4.15;;;9.50;99.90;;;;;;5096706;28;20032;-88
2021/12/18 16:48:34;;;;;;;7.65;6.20;;;9.50;99.90;;;;;;5095655;28;20044;-88
2021/12/18 16:51:00;;;;;;;7.30;6.05;;;9.50;99.90;;;;;;5095864;28;20516;-87
2021/12/18 16:53:26;;;;;;;7.70;5.90;;;9.50;99.90;;;;;;5095118;28;20028;-85
2021/12/18 16:55:52;;;;;;;6.57;3.80;;;9.50;99.90;;;;;;5070152;28;20464;-85
2021/12/18 16:58:18;;;;;;;6.30;4.07;;;9.50;99.90;;;;;;5090318;28;20052;-85
2021/12/18 17:00:44;;;;;;;6.18;3.55;;;9.60;99.90;;;;;;5115032;28;20038;-84
2021/12/18 17:03:10;;;;;;;6.13;3.40;;;9.50;99.90;;;;;;5096574;28;20020;-84
2021/12/18 17:05:41;;;;;;;7.28;4.22;;;9.50;99.90;;;;;;5079838;28;20055;-84
2021/12/18 17:08:07;;;;;;;;;;;9.50;99.90;;;;;;5080422;28;20039;-91
2021/12/18 17:10:34;;;;;;;5.55;3.63;;;9.50;99.90;;;;;;5096823;28;20045;-87
2021/12/18 17:12:59;;;;;;;7.30;4.63;;;9.50;99.90;;;;;;5079608;28;20495;-88
2021/12/18 17:15:25;;;;;;;9.60;6.32;;;9.50;99.90;;;;;;5096131;28;20032;-88
2021/12/18 17:17:51;;;;;;;7.95;5.68;;;9.50;99.90;;;;;;5079392;28;20122;-88
2021/12/18 17:20:16;;;;;;;7.80;5.35;;;9.50;99.90;;;;;;5079560;28;20020;-87
2021/12/18 17:22:44;;;;;;;7.63;5.80;;;9.50;99.90;;;;;;5096756;28;20036;-87
2021/12/18 17:25:10;;;;;;;8.32;5.50;;;9.50;99.90;;;;;;5080425;28;20046;-87
2021/12/18 17:27:37;;;;;;;7.72;4.88;;;9.50;99.90;;;;;;5097698;28;20028;-88
2021/12/18 17:30:05;;;;;;;7.13;5.03;;;9.50;99.90;;;;;;5115274;28;20468;-88
2021/12/18 17:32:31;;;;;;;9.55;6.72;;;9.50;99.90;;;;;;5114810;28;20055;-89
2021/12/18 17:34:56;;;;;;;8.73;6.45;;;9.50;99.90;;;;;;5080379;28;20028;-88
2021/12/18 17:37:23;;;;;;;9.25;6.78;;;9.50;99.90;;;;;;5063130;28;20028;-89
2021/12/18 17:39:48;;;;;;;9.60;6.75;;;9.40;99.90;;;;;;5096845;28;20032;-90
2021/12/18 17:42:17;;;;;;;10.48;6.68;;;9.50;99.90;;;;;;5079492;28;20030;-90
2021/12/18 17:44:42;;;;;;;10.20;7.72;;;9.50;99.90;;;;;;5114143;28;20095;-88
2021/12/18 17:47:13;;;;;;;39.97;32.33;;;9.50;99.90;;;;;;5114441;28;20118;-94
2021/12/18 17:49:42;;;;;;;14.77;11.27;;;9.50;99.90;;;;;;5065127;28;20083;-88
2021/12/18 17:52:07;;;;;;;13.18;10.15;;;9.50;99.90;;;;;;5090828;28;20028;-83
2021/12/18 17:54:33;;;;;;;13.05;9.63;;;9.60;99.90;;;;;;5113465;28;20039;-83
2021/12/18 17:57:00;;;;;;;14.75;10.20;;;9.50;99.90;;;;;;5082055;28;20033;-82
2021/12/18 17:59:28;;;;;;;12.95;9.77;;;9.50;99.90;;;;;;5057293;28;20484;-83
2021/12/18 18:01:54;;;;;;;13.43;9.65;;;9.50;99.90;;;;;;5093664;28;20031;-83
2021/12/18 18:04:20;;;;;;;11.57;8.85;;;9.50;99.90;;;;;;5075123;28;20028;-84
2021/12/18 18:06:45;;;;;;;15.00;10.48;;;9.50;99.90;;;;;;5083056;28;20126;-83
2021/12/18 18:09:12;;;;;;;12.38;9.15;;;9.50;99.90;;;;;;5058571;28;20372;-83
2021/12/18 18:11:37;;;;;;;15.63;11.05;;;9.50;99.90;;;;;;5076194;28;20445;-83
2021/12/18 18:14:23;;;;;;;14.82;10.50;;;9.50;99.90;;;;;;5093342;28;20028;-83
2021/12/18 18:20:12;;;;;;;14.73;10.63;;;9.50;99.90;;;;;;5093150;28;20063;-86
2021/12/18 18:22:38;;;;;;;14.25;10.43;;;9.50;99.90;;;;;;5090647;28;20024;-86
2021/12/18 18:25:05;;;;;;;15.82;10.88;;;9.60;99.90;;;;;;5109674;28;20031;-90
2021/12/18 18:27:31;;;;;;;16.60;12.20;;;9.50;99.90;;;;;;5116239;27;20032;-89
2021/12/18 18:29:56;;;;;;;17.45;12.20;;;9.50;99.90;;;;;;5098963;28;20516;-88
2021/12/18 18:32:42;;;;;;;18.08;13.93;;;9.50;99.90;;;;;;5099650;28;20024;-88
2021/12/18 18:35:08;;;;;;;15.18;10.40;;;9.60;99.90;;;;;;5098403;28;20024;-87
2021/12/18 18:37:34;;;;;;;16.48;10.70;;;9.50;99.90;;;;;;5081837;28;20078;-88
2021/12/18 18:39:59;;;;;;;16.30;11.82;;;9.50;99.90;;;;;;5095875;28;20472;-88
2021/12/18 18:42:26;;;;;;;15.75;11.40;;;9.50;99.90;;;;;;5082295;28;20031;-87
2021/12/18 18:45:00;;;;;;;15.80;12.20;;;9.50;99.90;;;;;;5098876;28;20051;-88
2021/12/18 18:47:31;;;;;;;16.40;12.80;;;9.50;99.90;;;;;;5098651;28;20031;-85
2021/12/18 18:49:57;;;;;;;17.67;12.45;;;9.50;99.90;;;;;;5098824;28;20077;-85
2021/12/18 18:52:23;;;;;;;17.42;12.52;;;9.50;99.90;;;;;;5078301;28;20022;-86
2021/12/18 18:54:49;;;;;;;18.15;13.10;;;9.40;99.90;;;;;;5092731;28;20019;-86
2021/12/18 18:57:14;;;;;;;20.73;13.82;;;9.50;99.90;;;;;;5093146;28;20539;-87
2021/12/18 18:59:44;;;;;;;18.70;13.52;;;9.50;99.90;;;;;;5098634;28;20118;-85
2021/12/18 19:02:11;;;;;;;16.50;11.75;;;9.50;99.90;;;;;;5081778;28;20019;-85
2021/12/18 19:04:39;;;;;;;18.40;11.68;;;9.50;99.90;;;;;;5094989;28;20109;-85
2021/12/18 19:07:23;;;;;;;18.77;11.98;;;9.50;99.90;;;;;;5086339;28;20036;-85
2021/12/18 19:09:50;;;;;;;18.75;13.00;;;9.50;99.90;;;;;;5073633;28;20047;-85
2021/12/18 19:12:16;;;;;;;17.20;11.20;;;9.50;99.90;;;;;;5072955;28;20377;-87
2021/12/18 19:14:42;;;;;;;16.10;10.88;;;9.50;99.90;;;;;;5093729;28;20095;-85
2021/12/18 19:17:08;;;;;;;15.20;10.88;;;9.60;99.90;;;;;;5086667;28;20020;-88
2021/12/18 19:19:51;;;;;;;16.80;12.43;;;9.40;99.90;;;;;;5101836;28;20074;-85
2021/12/18 19:22:18;;;;;;;17.02;12.48;;;9.50;99.90;;;;;;5109746;28;20004;-88
2021/12/18 19:24:44;;;;;;;18.35;13.68;;;9.50;99.90;;;;;;5103915;28;20009;-83
2021/12/18 19:27:10;;;;;;;15.40;11.77;;;9.50;99.90;;;;;;5104691;28;20092;-86
2021/12/18 19:29:35;;;;;;;17.80;12.02;;;9.50;99.90;;;;;;5111138;28;20012;-86
2021/12/18 19:32:02;;;;;;;16.73;11.65;;;9.50;99.90;;;;;;5079660;28;20036;-86
2021/12/18 19:34:28;;;;;;;16.80;11.98;;;9.50;99.90;;;;;;5080744;28;20025;-86
2021/12/18 19:36:54;;;;;;;19.60;14.63;;;9.50;99.90;;;;;;5065316;28;20024;-85
2021/12/18 19:39:20;;;;;;;16.85;12.32;;;9.50;99.90;;;;;;5040493;28;20070;-86
2021/12/18 19:41:46;;;;;;;19.20;13.40;;;9.50;99.90;;;;;;5054104;28;20111;-86
2021/12/18 19:44:12;;;;;;;19.27;12.93;;;9.50;99.90;;;;;;5057295;28;20070;-86
2021/12/18 19:46:38;;;;;;;16.45;11.13;;;9.50;99.90;;;;;;5041088;28;20135;-85
2021/12/18 19:49:05;;;;;;;16.45;10.95;;;9.50;99.90;;;;;;5057113;28;20029;-84
2021/12/18 19:51:32;;;;;;;20.05;14.25;;;9.60;99.90;;;;;;5075559;28;20036;-84
2021/12/18 19:53:58;;;;;;;17.20;12.32;;;9.50;99.90;;;;;;5057015;28;20024;-84
2021/12/18 19:56:24;;;;;;;19.95;12.93;;;9.50;99.90;;;;;;5040858;28;20473;-86
2021/12/18 19:58:50;;;;;;;19.15;12.52;;;9.50;99.90;;;;;;5040290;28;20035;-85
2021/12/18 20:01:16;;;;;;;17.88;11.80;;;9.50;99.90;;;;;;5075023;28;20513;-85
2021/12/18 20:06:26;;;;;;;17.77;12.82;;;9.50;99.90;;;;;;5087450;28;20483;-86
2021/12/18 20:08:51;;;;;;;18.30;12.57;;;9.50;99.90;;;;;;5073650;28;20442;-85
2021/12/18 20:11:17;;;;;;;18.20;12.52;;;9.50;99.90;;;;;;5070453;28;20107;-86
2021/12/18 20:13:43;;;;;;;18.73;13.90;;;9.50;99.90;;;;;;5043411;28;20028;-85
2021/12/18 20:16:09;;;;;;;15.85;10.57;;;9.50;99.90;;;;;;5040507;28;20059;-89
2021/12/18 20:18:35;;;;;;;14.82;11.02;;;9.40;99.90;;;;;;5073288;28;20063;-85
2021/12/18 20:21:02;;;;;;;16.70;11.35;;;9.40;99.90;;;;;;5091363;28;20028;-88
2021/12/18 20:23:31;;;;;;;18.88;13.57;;;9.40;99.90;;;;;;5088859;28;20026;-86
2021/12/18 20:25:57;;;;;;;20.52;14.05;;;9.50;99.90;;;;;;5089428;28;20028;-85
2021/12/18 20:28:23;;;;;;;20.27;13.57;;;9.50;99.90;;;;;;5076164;28;20077;-86
2021/12/18 20:30:50;;;;;;;18.65;12.80;;;9.50;99.90;;;;;;5076214;28;20022;-86
2021/12/18 20:33:18;;;;;;;22.67;14.20;;;9.50;99.90;;;;;;5075460;28;20393;-87
2021/12/18 20:35:45;;;;;;;18.25;11.85;;;9.40;99.90;;;;;;5059186;28;20052;-86
2021/12/18 20:38:12;;;;;;;25.95;16.55;;;9.50;99.90;;;;;;5071282;28;20082;-85
2021/12/18 20:40:38;;;;;;;18.08;12.20;;;9.40;99.90;;;;;;5094464;28;20095;-85
2021/12/18 20:43:04;;;;;;;20.00;13.15;;;9.40;99.90;;;;;;5054192;28;20475;-85
2021/12/18 20:45:31;;;;;;;16.73;11.63;;;9.40;99.90;;;;;;5066846;28;20025;-85
2021/12/18 20:47:59;;;;;;;18.25;12.50;;;9.50;99.90;;;;;;5056360;28;20026;-86
2021/12/18 20:50:25;;;;;;;21.20;15.65;;;9.40;99.90;;;;;;5070356;28;20051;-86
2021/12/18 20:52:53;;;;;;;18.25;12.25;;;9.40;99.90;;;;;;5086468;28;20089;-87
2021/12/18 20:55:19;;;;;;;15.07;10.20;;;9.40;99.90;;;;;;5110154;28;20028;-86
2021/12/18 20:57:46;;;;;;;19.60;14.73;;;9.40;99.90;;;;;;5070627;28;20028;-85
2021/12/18 21:00:22;;;;;;;15.80;10.10;;;9.40;99.90;;;;;;5041101;28;20027;-87
2021/12/18 21:02:49;;;;;;;15.18;9.20;;;9.40;99.90;;;;;;5072141;28;20024;-89
2021/12/18 21:05:15;;;;;;;15.68;10.35;;;9.40;99.90;;;;;;5040268;28;20044;-93
2021/12/18 21:07:51;;;;;;;14.98;9.45;;;9.40;99.90;;;;;;5076349;28;20025;-85
2021/12/18 21:10:24;;;;;;;16.15;10.27;;;9.40;99.90;;;;;;5042884;28;20048;-87
2021/12/18 21:12:50;;;;;;;10.40;6.47;;;9.40;99.90;;;;;;5064521;28;20024;-86
2021/12/18 21:15:17;;;;;;;9.35;5.35;;;9.40;99.90;;;;;;5084647;28;20334;-88
2021/12/18 21:17:46;;;;;;;8.43;5.30;;;9.40;99.90;;;;;;5072968;28;20031;-86
2021/12/18 21:20:12;;;;;;;9.10;5.03;;;9.40;99.90;;;;;;5059479;28;20461;-85
2021/12/18 21:22:38;;;;;;;7.90;4.43;;;9.30;99.90;;;;;;5076004;28;20021;-85
2021/12/18 21:25:05;;;;;;;7.50;4.65;;;9.40;99.90;;;;;;5093344;28;20028;-85
2021/12/18 21:27:30;;;;;;;8.50;4.78;;;9.30;99.90;;;;;;5071086;28;20452;-85
2021/12/18 21:29:56;;;;;;;8.00;4.60;;;9.30;99.90;;;;;;5072050;28;20123;-85
2021/12/18 21:32:22;;;;;;;8.77;5.00;;;9.30;99.90;;;;;;5073728;28;20453;-86
2021/12/18 21:37:15;;;;;;;11.32;5.55;;;9.30;99.90;;;;;;5073880;28;20158;-85
2021/12/18 21:39:43;;;;;;;10.45;5.30;;;9.30;99.90;;;;;;5057341;28;20028;-85
2021/12/18 21:42:09;;;;;;;11.25;6.15;;;9.30;99.90;;;;;;5056564;28;20082;-86
2021/12/18 21:44:35;;;;;;;11.75;6.15;;;9.30;99.90;;;;;;5075922;28;20416;-86
2021/12/18 21:47:01;;;;;;;8.52;5.45;;;9.30;99.90;;;;;;5089338;28;20028;-86
2021/12/18 21:49:28;;;;;;;11.93;6.95;;;9.30;99.90;;;;;;5070998;28;20036;-84
2021/12/18 21:51:53;;;;;;;15.60;11.13;;;9.30;99.90;;;;;;5073392;28;20016;-86
2021/12/18 21:54:19;;;;;;;15.30;11.43;;;9.30;99.90;;;;;;5063612;28;20430;-91
2021/12/18 21:56:45;;;;;;;10.60;7.30;;;9.40;99.90;;;;;;5087222;28;20059;-85
2021/12/18 21:59:12;;;;;;;11.68;7.07;;;9.40;99.90;;;;;;5078057;28;20114;-86
2021/12/18 22:01:40;;;;;;;10.40;6.25;;;9.40;99.90;;;;;;5078721;28;20032;-85
2021/12/18 22:04:08;;;;;;;11.68;7.07;;;9.40;99.90;;;;;;5094384;28;20103;-86
2021/12/18 22:06:34;;;;;;;13.32;8.73;;;9.30;99.90;;;;;;5059082;28;20028;-86
2021/12/18 22:09:00;;;;;;;13.82;8.63;;;9.30;99.90;;;;;;5043550;28;20032;-91
2021/12/18 22:11:27;;;;;;;13.52;7.95;;;9.30;99.90;;;;;;5058927;28;20086;-86
2021/12/18 22:13:53;;;;;;;25.58;17.13;;;9.40;99.90;;;;;;5077604;28;20024;-85
2021/12/18 22:16:20;;;;;;;16.02;9.80;;;9.40;99.90;;;;;;5067994;28;20033;-85
2021/12/18 22:18:46;;;;;;;13.50;8.32;;;9.40;99.90;;;;;;5058768;28;20056;-85
2021/12/18 22:21:12;;;;;;;12.77;7.78;;;9.30;99.90;;;;;;5069063;28;20091;-85
2021/12/18 22:23:38;;;;;;;14.80;9.82;;;9.30;99.90;;;;;;5022133;28;20125;-86
2021/12/18 22:26:03;;;;;;;12.05;7.25;;;9.40;99.90;;;;;;5038265;28;20449;-86
2021/12/18 22:28:29;;;;;;;14.68;7.50;;;9.40;99.90;;;;;;5066110;28;20028;-84
2021/12/18 22:30:55;;;;;;;12.27;6.90;;;9.40;99.90;;;;;;5063889;28;20025;-89
2021/12/18 22:33:21;;;;;;;12.35;7.03;;;9.40;99.90;;;;;;5049299;28;20336;-88
2021/12/18 22:35:49;;;;;;;11.73;6.95;;;9.40;99.90;;;;;;5094327;28;20028;-87
2021/12/18 22:38:16;;;;;;;11.88;6.65;;;9.30;99.90;;;;;;5041234;28;20032;-86
2021/12/18 22:40:42;;;;;;;11.25;7.20;;;9.30;99.90;;;;;;5041838;28;20039;-87
2021/12/18 22:43:09;;;;;;;12.40;6.40;;;9.30;99.90;;;;;;5041108;28;20028;-86
2021/12/18 22:45:36;;;;;;;16.60;9.73;;;9.30;99.90;;;;;;5062938;28;20068;-86
2021/12/18 22:48:07;;;;;;;13.25;8.07;;;9.30;99.90;;;;;;5062138;28;20063;-86
2021/12/18 22:50:34;;;;;;;;;;;9.30;99.90;;;;;;5058296;28;20036;-84
2021/12/18 22:53:00;;;;;;;16.85;8.85;;;9.30;99.90;;;;;;5060658;28;19905;-86
2021/12/18 22:55:26;;;;;;;19.83;10.45;;;9.30;99.90;;;;;;5077533;28;20519;-88
2021/12/18 22:57:51;;;;;;;13.88;7.70;;;9.30;99.90;;;;;;5063792;28;20503;-88
2021/12/18 23:00:26;;;;;;;16.02;9.82;;;9.30;99.90;;;;;;5067438;28;20037;-96
2021/12/18 23:02:56;;;;;;;13.25;6.95;;;9.30;99.90;;;;;;5084232;28;20013;-84